createdAt,value
2017-10-26T00:00:18.105Z,15.33
2017-10-26T00:02:46.406Z,15.60
2017-10-26T00:05:13.914Z,15.93
2017-10-26T00:07:41.420Z,16.03
2017-10-26T00:10:08.961Z,16.90
2017-10-26T00:12:37.240Z,14.93
2017-10-26T00:15:04.790Z,16.57
2017-10-26T00:17:33.106Z,19.50
2017-10-26T00:20:00.614Z,16.37
2017-10-26T00:22:28.158Z,17.53
2017-10-26T00:24:55.673Z,16.13
2017-10-26T00:27:23.588Z,16.03
2017-10-26T00:29:51.097Z,16.47
2017-10-26T00:32:18.639Z,17.83
2017-10-26T00:34:46.180Z,16.90
2017-10-26T00:37:14.467Z,17.60
2017-10-26T00:39:42.019Z,18.07
2017-10-26T00:42:10.314Z,20.60
2017-10-26T00:44:37.844Z,19.97
2017-10-26T00:47:05.382Z,19.60
2017-10-26T00:49:33.272Z,20.90
2017-10-26T00:52:00.786Z,21.57
2017-10-26T00:54:28.308Z,21.57
2017-10-26T00:56:56.626Z,22.17
2017-10-26T00:59:24.137Z,23.13
2017-10-26T01:01:52.456Z,21.80
2017-10-26T01:04:19.998Z,25.40
2017-10-26T01:06:47.546Z,28.43
2017-10-26T01:09:15.063Z,27.70
2017-10-26T01:11:42.616Z,31.27
2017-10-26T01:14:10.153Z,29.70
2017-10-26T01:16:37.665Z,26.97
2017-10-26T01:19:05.994Z,25.10
2017-10-26T01:21:33.545Z,26.23
2017-10-26T01:24:01.041Z,28.80
2017-10-26T01:26:28.569Z,29.83
2017-10-26T01:28:56.116Z,31.93
2017-10-26T01:31:23.658Z,31.30
2017-10-26T01:33:51.200Z,30.57
2017-10-26T01:36:18.728Z,30.83
2017-10-26T01:38:46.220Z,29.10
2017-10-26T01:41:14.545Z,28.97
2017-10-26T01:43:42.114Z,30.87
2017-10-26T01:46:09.624Z,32.70
2017-10-26T01:48:38.141Z,33.47
2017-10-26T01:51:05.664Z,32.80
2017-10-26T01:53:33.969Z,32.47
2017-10-26T01:56:01.536Z,32.17
2017-10-26T01:58:29.044Z,28.60
2017-10-26T02:00:57.055Z,27.43
2017-10-26T02:03:24.614Z,30.07
2017-10-26T02:05:52.117Z,27.73
2017-10-26T02:08:19.643Z,26.90
2017-10-26T02:10:47.223Z,23.33
2017-10-26T02:13:15.091Z,23.43
2017-10-26T02:15:42.646Z,24.87
2017-10-26T02:18:10.205Z,28.10
2017-10-26T02:20:37.708Z,29.57
2017-10-26T02:23:05.980Z,32.23
2017-10-26T02:25:33.539Z,32.13
2017-10-26T02:28:01.841Z,34.83
2017-10-26T02:30:41.192Z,35.80
2017-10-26T02:33:08.715Z,34.23
2017-10-26T02:35:36.258Z,31.50
2017-10-26T02:38:03.773Z,33.00
2017-10-26T02:40:31.321Z,32.83
2017-10-26T02:42:58.826Z,30.87
2017-10-26T02:45:26.338Z,27.50
2017-10-26T02:47:53.894Z,26.77
2017-10-26T02:50:21.394Z,26.53
2017-10-26T02:52:48.927Z,28.57
2017-10-26T02:55:16.469Z,27.80
2017-10-26T02:57:43.997Z,26.60
2017-10-26T03:00:11.551Z,25.70
2017-10-26T03:02:39.832Z,25.00
2017-10-26T03:05:08.124Z,23.20
2017-10-26T03:07:35.664Z,23.00
2017-10-26T03:10:03.207Z,22.30
2017-10-26T03:12:30.757Z,22.70
2017-10-26T03:14:58.266Z,24.33
2017-10-26T03:17:25.856Z,27.07
2017-10-26T03:19:53.371Z,23.90
2017-10-26T03:22:21.648Z,23.00
2017-10-26T03:24:49.182Z,21.70
2017-10-26T03:27:17.463Z,19.97
2017-10-26T03:29:45.754Z,18.73
2017-10-26T03:32:14.092Z,19.43
2017-10-26T03:34:41.615Z,20.33
2017-10-26T03:37:09.158Z,20.67
2017-10-26T03:39:36.667Z,22.80
2017-10-26T03:42:04.213Z,21.60
2017-10-26T03:44:31.727Z,20.67
2017-10-26T03:47:00.074Z,22.37
2017-10-26T03:49:27.587Z,22.80
2017-10-26T03:51:55.121Z,21.97
2017-10-26T03:54:22.659Z,26.50
2017-10-26T03:56:50.936Z,26.87
2017-10-26T03:59:18.478Z,28.17
2017-10-26T04:01:45.994Z,27.30
2017-10-26T04:04:13.493Z,30.40
2017-10-26T04:06:41.038Z,30.90
2017-10-26T04:09:08.542Z,27.97
2017-10-26T04:11:36.075Z,28.20
2017-10-26T04:14:03.586Z,29.27
2017-10-26T04:16:31.095Z,27.33
2017-10-26T04:18:58.624Z,26.70
2017-10-26T04:21:26.144Z,28.87
2017-10-26T04:23:53.656Z,30.57
2017-10-26T04:26:21.198Z,30.07
2017-10-26T04:28:48.715Z,30.90
2017-10-26T04:31:17.030Z,27.30
2017-10-26T04:33:44.614Z,31.87
2017-10-26T04:36:12.161Z,31.13
2017-10-26T04:38:39.688Z,31.77
2017-10-26T04:41:07.198Z,35.37
2017-10-26T04:43:34.748Z,34.63
2017-10-26T04:46:02.289Z,34.67
2017-10-26T04:48:29.797Z,30.97
2017-10-26T04:50:58.113Z,32.10
2017-10-26T04:53:25.615Z,33.40
2017-10-26T04:55:53.157Z,37.57
2017-10-26T04:58:20.697Z,37.93
2017-10-26T05:00:48.210Z,43.20
2017-10-26T05:03:15.736Z,36.13
2017-10-26T05:05:43.270Z,40.40
2017-10-26T05:08:10.786Z,40.20
2017-10-26T05:10:39.061Z,35.77
2017-10-26T05:13:06.570Z,40.70
2017-10-26T05:15:34.111Z,31.30
2017-10-26T05:18:01.625Z,25.77
2017-10-26T05:20:29.181Z,30.37
2017-10-26T05:22:56.684Z,38.27
2017-10-26T05:25:24.774Z,33.37
2017-10-26T05:27:52.280Z,27.53
2017-10-26T05:30:20.621Z,29.73
2017-10-26T05:32:48.131Z,26.03
2017-10-26T05:35:15.657Z,27.37
2017-10-26T05:37:43.203Z,25.63
2017-10-26T05:40:10.939Z,23.73
2017-10-26T05:42:38.516Z,20.93
2017-10-26T05:45:06.031Z,20.90
2017-10-26T05:47:33.611Z,22.87
2017-10-26T05:50:01.158Z,19.47
2017-10-26T05:52:28.716Z,22.60
2017-10-26T05:54:56.219Z,22.80
2017-10-26T05:57:23.781Z,21.33
2017-10-26T05:59:51.310Z,20.80
2017-10-26T06:02:18.837Z,19.20
2017-10-26T06:04:46.348Z,19.00
2017-10-26T06:07:13.893Z,20.10
2017-10-26T06:09:42.192Z,20.30
2017-10-26T06:12:09.831Z,20.13
2017-10-26T06:14:37.376Z,20.70
2017-10-26T06:17:04.882Z,22.07
2017-10-26T06:19:32.389Z,18.67
2017-10-26T06:21:59.928Z,19.90
2017-10-26T06:24:27.450Z,20.43
2017-10-26T06:26:54.969Z,22.10
2017-10-26T06:29:22.525Z,23.70
2017-10-26T06:31:50.031Z,22.83
2017-10-26T06:34:17.576Z,21.30
2017-10-26T06:36:45.082Z,16.97
2017-10-26T06:39:12.611Z,16.20
2017-10-26T06:41:40.222Z,17.63
2017-10-26T06:44:07.733Z,17.37
2017-10-26T06:46:35.248Z,17.13
2017-10-26T06:49:02.816Z,16.70
2017-10-26T06:51:31.088Z,18.43
2017-10-26T06:53:58.596Z,17.57
2017-10-26T06:56:26.171Z,17.33
2017-10-26T06:58:53.680Z,16.67
2017-10-26T07:01:21.195Z,16.30
2017-10-26T07:03:48.732Z,16.37
2017-10-26T07:06:16.719Z,15.60
2017-10-26T07:08:44.222Z,17.20
2017-10-26T07:11:11.720Z,18.43
2017-10-26T07:13:39.305Z,18.37
2017-10-26T07:16:06.816Z,19.10
2017-10-26T07:18:34.355Z,18.60
2017-10-26T07:21:01.865Z,20.60
2017-10-26T07:23:29.454Z,17.03
2017-10-26T07:25:56.997Z,17.50
2017-10-26T07:28:24.514Z,18.07
2017-10-26T07:30:52.058Z,19.60
2017-10-26T07:33:19.575Z,19.67
2017-10-26T07:35:47.166Z,20.30
2017-10-26T07:38:14.677Z,20.97
2017-10-26T07:40:42.221Z,21.57
2017-10-26T07:43:09.793Z,21.20
2017-10-26T07:45:37.309Z,22.60
2017-10-26T07:48:05.684Z,22.43
2017-10-26T07:50:33.242Z,22.93
2017-10-26T07:53:01.527Z,23.53
2017-10-26T07:55:29.071Z,23.73
2017-10-26T07:57:57.432Z,24.53
2017-10-26T08:00:25.029Z,24.63
2017-10-26T08:02:52.554Z,24.37
2017-10-26T08:05:20.134Z,23.90
2017-10-26T08:07:47.682Z,26.37
2017-10-26T08:10:16.029Z,22.60
2017-10-26T08:12:43.602Z,30.93
2017-10-26T08:15:11.118Z,28.53
2017-10-26T08:17:38.669Z,32.37
2017-10-26T08:20:06.225Z,28.67
2017-10-26T08:22:33.737Z,20.30
2017-10-26T08:25:01.238Z,27.80
2017-10-26T08:27:28.783Z,24.53
2017-10-26T08:29:56.313Z,21.80
2017-10-26T08:32:23.867Z,41.10
2017-10-26T08:34:51.455Z,25.70
2017-10-26T08:37:18.990Z,32.20
2017-10-26T08:39:46.560Z,24.70
2017-10-26T08:42:14.217Z,28.67
2017-10-26T08:44:41.776Z,21.17
2017-10-26T08:47:09.309Z,19.60
2017-10-26T08:49:36.880Z,21.10
2017-10-26T08:52:04.449Z,19.20
2017-10-26T08:54:31.996Z,17.23
2017-10-26T08:56:59.520Z,17.53
2017-10-26T08:59:27.084Z,18.10
2017-10-26T09:01:54.674Z,23.53
2017-10-26T09:04:22.196Z,30.93
2017-10-26T09:06:49.766Z,22.90
2017-10-26T09:09:17.341Z,20.10
2017-10-26T09:11:44.853Z,18.47
2017-10-26T09:14:12.412Z,16.60
2017-10-26T09:16:40.828Z,16.90
2017-10-26T09:19:08.344Z,17.30
2017-10-26T09:21:36.687Z,17.53
2017-10-26T09:24:04.223Z,18.43
2017-10-26T09:26:31.783Z,17.63
2017-10-26T09:28:59.303Z,19.57
2017-10-26T09:31:27.623Z,18.83
2017-10-26T09:33:55.177Z,18.47
2017-10-26T09:36:22.717Z,19.87
2017-10-26T09:38:50.281Z,19.00
2017-10-26T09:41:17.797Z,19.77
2017-10-26T09:43:45.393Z,18.57
2017-10-26T09:46:12.937Z,18.10
2017-10-26T09:48:41.237Z,18.17
2017-10-26T09:51:08.784Z,17.33
2017-10-26T09:53:36.363Z,17.23
2017-10-26T09:56:03.889Z,19.20
2017-10-26T09:58:31.394Z,16.57
2017-10-26T10:00:58.958Z,18.10
2017-10-26T10:03:26.501Z,17.73
2017-10-26T10:05:54.057Z,18.47
2017-10-26T10:08:21.581Z,16.93
2017-10-26T10:10:49.128Z,19.30
2017-10-26T10:13:16.660Z,17.60
2017-10-26T10:15:44.277Z,18.60
2017-10-26T10:18:12.136Z,18.47
2017-10-26T10:20:40.493Z,16.47
2017-10-26T10:23:08.869Z,18.30
2017-10-26T10:25:36.393Z,17.50
2017-10-26T10:28:03.975Z,16.67
2017-10-26T10:30:31.475Z,16.80
2017-10-26T10:32:59.012Z,16.57
2017-10-26T10:35:27.573Z,17.80
2017-10-26T10:37:55.081Z,17.10
2017-10-26T10:40:22.616Z,15.90
2017-10-26T10:42:50.929Z,16.07
2017-10-26T10:45:18.507Z,16.63
2017-10-26T10:47:46.071Z,15.17
2017-10-26T10:50:13.576Z,15.87
2017-10-26T10:52:41.897Z,11.50
2017-10-26T10:55:09.470Z,10.30
2017-10-26T10:57:36.965Z,10.43
2017-10-26T11:00:11.009Z,10.10
2017-10-26T11:02:38.546Z,10.43
2017-10-26T11:05:06.137Z,11.23
2017-10-26T11:07:33.695Z,9.90
2017-10-26T11:10:01.213Z,9.17
2017-10-26T11:12:28.745Z,10.33
2017-10-26T11:14:56.277Z,10.13
2017-10-26T11:17:23.822Z,10.40
2017-10-26T11:19:51.324Z,11.07
2017-10-26T11:22:18.845Z,10.37
2017-10-26T11:24:46.406Z,11.70
2017-10-26T11:27:13.936Z,9.33
2017-10-26T11:29:41.440Z,10.10
2017-10-26T11:32:08.999Z,9.27
2017-10-26T11:34:36.509Z,9.67
2017-10-26T11:37:04.076Z,10.30
2017-10-26T11:39:32.348Z,9.63
2017-10-26T11:42:00.644Z,10.87
2017-10-26T11:44:28.183Z,10.50
2017-10-26T11:46:55.720Z,12.13
2017-10-26T11:49:23.249Z,11.67
2017-10-26T11:51:50.807Z,11.87
2017-10-26T11:54:18.313Z,12.23
2017-10-26T11:56:45.932Z,12.17
2017-10-26T11:59:13.453Z,11.83
2017-10-26T12:01:40.963Z,10.53
2017-10-26T12:04:08.504Z,11.73
2017-10-26T12:06:36.088Z,11.40
2017-10-26T12:09:03.596Z,11.10
2017-10-26T12:11:31.110Z,12.50
2017-10-26T12:13:58.640Z,11.60
2017-10-26T12:16:26.143Z,11.40
2017-10-26T12:18:53.681Z,11.53
2017-10-26T12:21:21.205Z,11.43
2017-10-26T12:23:48.761Z,11.40
2017-10-26T12:26:16.301Z,12.10
2017-10-26T12:28:43.815Z,10.97
2017-10-26T12:31:11.388Z,11.40
2017-10-26T12:33:38.915Z,12.77
2017-10-26T12:36:06.416Z,11.33
2017-10-26T12:38:33.984Z,11.70
2017-10-26T12:41:02.298Z,10.80
2017-10-26T12:43:29.800Z,10.80
2017-10-26T12:45:57.343Z,11.57
2017-10-26T12:48:25.177Z,11.17
2017-10-26T12:50:53.468Z,10.47
2017-10-26T12:53:21.026Z,10.87
2017-10-26T12:55:48.590Z,11.57
2017-10-26T12:58:16.144Z,10.93
2017-10-26T13:00:43.647Z,10.63
2017-10-26T13:03:11.922Z,10.50
2017-10-26T13:05:40.234Z,9.87
2017-10-26T13:08:07.790Z,9.20
2017-10-26T13:10:35.294Z,9.93
2017-10-26T13:13:02.836Z,9.70
2017-10-26T13:15:31.080Z,9.37
2017-10-26T13:20:59.397Z,8.67
2017-10-26T13:23:27.328Z,7.90
2017-10-26T13:25:55.323Z,8.43
2017-10-26T13:28:23.249Z,8.27
2017-10-26T13:30:51.750Z,9.53
2017-10-26T13:33:19.665Z,9.60
2017-10-26T13:35:47.651Z,8.10
2017-10-26T13:38:15.357Z,8.67
2017-10-26T13:40:44.038Z,8.30
2017-10-26T13:43:13.222Z,7.90
2017-10-26T13:45:41.647Z,8.37
2017-10-26T13:48:09.461Z,7.00
2017-10-26T13:55:44.025Z,6.03
2017-10-26T13:58:14.477Z,5.70
2017-10-26T14:03:16.917Z,6.10
2017-10-26T14:05:46.932Z,6.50
2017-10-26T14:08:14.695Z,5.70
2017-10-26T14:10:42.492Z,5.90
2017-10-26T14:13:10.095Z,6.40
2017-10-26T14:15:38.191Z,8.10
2017-10-26T14:18:05.845Z,8.10
2017-10-26T14:20:34.224Z,7.80
2017-10-26T14:23:02.140Z,8.43
2017-10-26T14:25:31.067Z,7.60
2017-10-26T14:27:59.025Z,8.20
2017-10-26T14:30:27.150Z,7.10
2017-10-26T14:32:55.102Z,6.47
2017-10-26T14:35:23.327Z,5.40
2017-10-26T14:37:51.356Z,6.30
2017-10-26T14:40:19.926Z,5.00
2017-10-26T14:42:48.633Z,5.33
2017-10-26T14:45:16.275Z,5.77
2017-10-26T14:47:44.376Z,7.30
2017-10-26T14:50:12.359Z,8.10
2017-10-26T14:52:40.817Z,8.47
2017-10-26T14:55:08.789Z,8.93
2017-10-26T14:57:36.746Z,8.60
2017-10-26T15:00:05.374Z,8.60
2017-10-26T15:02:34.037Z,9.10
2017-10-26T15:05:02.132Z,8.70
2017-10-26T15:07:29.849Z,8.33
2017-10-26T15:09:57.727Z,9.70
2017-10-26T15:12:25.565Z,9.63
2017-10-26T15:14:53.653Z,8.53
2017-10-26T15:17:21.379Z,9.03
2017-10-26T15:19:49.253Z,9.33
2017-10-26T15:22:18.347Z,9.03
2017-10-26T15:24:47.220Z,8.47
2017-10-26T15:27:15.964Z,9.13
2017-10-26T15:29:44.037Z,8.20
2017-10-26T15:32:11.866Z,8.43
2017-10-26T15:34:40.475Z,9.70
2017-10-26T15:37:08.520Z,9.33
2017-10-26T15:39:37.787Z,8.23
2017-10-26T15:42:05.917Z,8.73
2017-10-26T15:44:33.640Z,8.80
2017-10-26T15:47:01.375Z,8.17
2017-10-26T15:49:30.167Z,8.73
2017-10-26T15:51:57.885Z,7.90
2017-10-26T15:54:26.217Z,9.17
2017-10-26T15:56:54.126Z,9.23
2017-10-26T15:59:21.958Z,9.43
2017-10-26T16:01:50.113Z,10.67
2017-10-26T16:04:17.945Z,10.90
2017-10-26T16:06:45.763Z,10.07
2017-10-26T16:09:13.419Z,10.73
2017-10-26T16:11:41.093Z,10.57
2017-10-26T16:14:09.126Z,11.07
2017-10-26T16:16:37.747Z,11.10
2017-10-26T16:19:05.492Z,11.20
2017-10-26T16:21:33.417Z,11.20
2017-10-26T16:24:01.686Z,9.43
2017-10-26T16:26:29.825Z,11.03
2017-10-26T16:28:57.608Z,11.10
2017-10-26T16:31:26.359Z,10.57
2017-10-26T16:33:54.402Z,10.00
2017-10-26T16:36:22.254Z,11.60
2017-10-26T16:38:49.919Z,12.30
2017-10-26T16:41:18.147Z,11.57
2017-10-26T16:43:46.481Z,11.70
2017-10-26T16:46:15.755Z,12.13
2017-10-26T16:48:43.550Z,16.20
2017-10-26T16:51:11.311Z,14.63
2017-10-26T16:53:39.426Z,13.90
2017-10-26T16:56:08.324Z,13.20
2017-10-26T16:58:36.408Z,13.90
2017-10-26T17:01:04.122Z,13.63
2017-10-26T17:03:32.311Z,14.20
2017-10-26T17:06:00.125Z,13.33
2017-10-26T17:08:27.902Z,14.67
2017-10-26T17:10:56.379Z,14.20
2017-10-26T17:13:24.474Z,15.40
2017-10-26T17:15:52.810Z,14.00
2017-10-26T17:18:20.556Z,14.53
2017-10-26T17:20:48.320Z,14.77
2017-10-26T17:23:16.345Z,14.73
2017-10-26T17:25:44.138Z,14.27
2017-10-26T17:28:12.026Z,14.50
2017-10-26T17:30:39.995Z,15.67
2017-10-26T17:33:07.746Z,16.70
2017-10-26T17:35:35.615Z,18.13
2017-10-26T17:38:03.388Z,18.60
2017-10-26T17:40:31.486Z,17.27
2017-10-26T17:42:59.257Z,18.37
2017-10-26T17:45:26.974Z,17.63
2017-10-26T17:47:54.954Z,16.90
2017-10-26T17:50:22.816Z,16.50
2017-10-26T17:52:50.472Z,17.13
2017-10-26T17:55:18.694Z,16.50
2017-10-26T17:57:46.933Z,18.80
2017-10-26T18:00:14.955Z,15.37
2017-10-26T18:02:42.882Z,17.13
2017-10-26T18:05:10.830Z,15.40
2017-10-26T18:07:39.249Z,16.53
2017-10-26T18:10:07.231Z,16.50
2017-10-26T18:12:35.449Z,15.00
2017-10-26T18:15:03.846Z,14.20
2017-10-26T18:17:31.831Z,15.67
2017-10-26T18:19:59.787Z,13.73
2017-10-26T18:22:27.849Z,14.77
2017-10-26T18:24:56.518Z,14.97
2017-10-26T18:27:25.166Z,13.67
2017-10-26T18:29:53.351Z,15.40
2017-10-26T18:32:21.485Z,14.47
2017-10-26T18:34:49.908Z,16.43
2017-10-26T18:37:17.951Z,18.07
2017-10-26T18:39:45.658Z,17.97
2017-10-26T18:42:14.164Z,17.07
2017-10-26T18:44:42.543Z,17.40
2017-10-26T18:47:10.281Z,16.87
2017-10-26T18:49:38.332Z,17.27
2017-10-26T18:52:06.215Z,18.33
2017-10-26T18:54:34.320Z,17.23
2017-10-26T18:57:02.014Z,17.03
2017-10-26T18:59:30.553Z,19.40
2017-10-26T19:01:58.868Z,18.90
2017-10-26T19:04:27.211Z,16.57
2017-10-26T19:06:54.865Z,16.80
2017-10-26T19:09:23.477Z,15.40
2017-10-26T19:11:51.809Z,14.63
2017-10-26T19:14:20.122Z,14.93
2017-10-26T19:16:48.065Z,16.17
2017-10-26T19:19:15.931Z,16.40
2017-10-26T19:21:44.991Z,14.27
2017-10-26T19:24:13.040Z,15.20
2017-10-26T19:26:41.125Z,15.60
2017-10-26T19:29:09.443Z,15.80
2017-10-26T19:31:38.253Z,16.03
2017-10-26T19:34:06.246Z,16.00
2017-10-26T19:36:34.408Z,16.50
2017-10-26T19:39:02.604Z,15.27
2017-10-26T19:41:30.558Z,14.73
2017-10-26T19:43:58.426Z,15.63
2017-10-26T19:46:26.474Z,18.87
2017-10-26T19:48:54.239Z,18.03
2017-10-26T19:51:22.259Z,16.93
2017-10-26T19:53:50.626Z,17.60
2017-10-26T19:56:19.452Z,19.70
2017-10-26T19:58:48.663Z,18.97
2017-10-26T20:01:17.962Z,18.33
2017-10-26T20:03:46.192Z,19.70
2017-10-26T20:06:13.976Z,18.63
2017-10-26T20:08:41.981Z,19.70
2017-10-26T20:11:09.842Z,17.43
2017-10-26T20:13:38.592Z,16.93
2017-10-26T20:16:07.244Z,19.07
2017-10-26T20:18:35.163Z,19.67
2017-10-26T20:21:03.968Z,20.87
2017-10-26T20:23:32.482Z,19.23
2017-10-26T20:26:00.633Z,20.10
2017-10-26T20:28:29.101Z,19.20
2017-10-26T20:30:57.751Z,18.60
2017-10-26T20:33:25.733Z,18.70
2017-10-26T20:35:53.468Z,19.60
2017-10-26T20:38:22.207Z,19.10
2017-10-26T20:40:51.146Z,20.63
2017-10-26T20:43:19.452Z,18.70
2017-10-26T20:45:47.088Z,19.10
2017-10-26T20:48:15.279Z,20.50
2017-10-26T20:50:43.231Z,19.07
2017-10-26T20:53:10.839Z,19.60
2017-10-26T20:55:39.081Z,17.97
2017-10-26T20:58:06.876Z,17.97
2017-10-26T21:00:35.385Z,18.97
2017-10-26T21:03:03.665Z,20.13
2017-10-26T21:05:31.534Z,19.00
2017-10-26T21:07:59.415Z,18.97
2017-10-26T21:10:27.604Z,17.10
2017-10-26T21:12:55.275Z,18.97
2017-10-26T21:15:23.511Z,18.40
2017-10-26T21:17:51.497Z,16.80
2017-10-26T21:20:19.499Z,16.40
2017-10-26T21:22:47.463Z,17.60
2017-10-26T21:25:15.624Z,17.60
2017-10-26T21:27:43.410Z,18.50
2017-10-26T21:30:11.336Z,16.93
2017-10-26T21:32:39.421Z,17.50
2017-10-26T21:35:07.528Z,18.53
2017-10-26T21:37:36.542Z,19.03
2017-10-26T21:40:05.359Z,17.53
2017-10-26T21:42:33.540Z,19.03
2017-10-26T21:45:01.843Z,18.83
2017-10-26T21:47:31.442Z,18.10
2017-10-26T21:49:59.862Z,19.13
2017-10-26T21:52:28.668Z,18.00
2017-10-26T21:54:57.001Z,18.50
2017-10-26T21:57:24.907Z,18.63
2017-10-26T21:59:52.998Z,19.77
2017-10-26T22:02:21.069Z,18.30
2017-10-26T22:04:48.815Z,18.77
2017-10-26T22:07:17.152Z,23.37
2017-10-26T22:09:45.007Z,22.83
2017-10-26T22:12:12.696Z,20.80
2017-10-26T22:14:41.756Z,22.70
2017-10-26T22:17:09.585Z,23.17
2017-10-26T22:19:37.690Z,23.10
2017-10-26T22:22:05.682Z,24.63
2017-10-26T22:24:34.587Z,20.43
2017-10-26T22:27:02.972Z,21.60
2017-10-26T22:29:31.748Z,20.70
2017-10-26T22:32:00.085Z,21.80
2017-10-26T22:34:27.979Z,20.87
2017-10-26T22:36:56.132Z,21.93
2017-10-26T22:39:23.916Z,21.30
2017-10-26T22:41:52.800Z,20.63
2017-10-26T22:44:20.720Z,19.10
2017-10-26T22:46:48.998Z,20.70
2017-10-26T22:49:17.196Z,20.83
2017-10-26T22:51:45.257Z,20.13
2017-10-26T22:54:13.051Z,21.57
2017-10-26T22:56:41.176Z,21.13
2017-10-26T22:59:09.479Z,23.57
2017-10-26T23:01:37.534Z,22.60
2017-10-26T23:04:05.442Z,23.77
2017-10-26T23:06:33.625Z,18.17
2017-10-26T23:09:01.488Z,18.00
2017-10-26T23:11:29.292Z,16.43
2017-10-26T23:13:57.580Z,16.87
2017-10-26T23:16:25.360Z,18.07
2017-10-26T23:18:53.872Z,18.17
2017-10-26T23:21:22.097Z,19.73
2017-10-26T23:23:50.242Z,18.33
2017-10-26T23:26:18.623Z,17.23
2017-10-26T23:28:47.524Z,17.03
2017-10-26T23:31:16.405Z,17.73
2017-10-26T23:33:44.253Z,18.13
2017-10-26T23:36:12.253Z,15.80
2017-10-26T23:38:40.177Z,15.43
2017-10-26T23:41:08.196Z,16.07
2017-10-26T23:43:36.862Z,14.13
2017-10-26T23:46:06.241Z,14.70
2017-10-26T23:48:34.502Z,15.17
2017-10-26T23:51:02.693Z,15.10
2017-10-26T23:53:30.684Z,14.87
2017-10-26T23:55:59.921Z,14.67
2017-10-26T23:58:27.712Z,14.80
